Time;durP1;ratioP1;P1;durP2;ratioP2;P2;SDS_P1;SDS_P2;PMS_P1;PMS_P2;Temp;Humidity;BMP_temperature;BMP_pressure;BME280_temperature;BME280_humidity;BME280_pressure;Samples;Min_cycle;Max_cycle;Signal;HPM_P1;HPM_P2
2023/11/24 00:02:08;;;;;;;18.90;4.20;;;;;;;;;;2608671;54;20398;-75
2023/11/24 00:04:34;;;;;;;20.10;3.93;;;;;;;;;;2606918;54;20421;-76
2023/11/24 00:07:03;;;;;;;16.07;4.13;;;;;;;;;;2606990;51;20477;-75
2023/11/24 00:09:30;;;;;;;15.47;4.10;;;;;;;;;;2605891;47;20443;-76
2023/11/24 00:11:58;;;;;;;14.93;3.07;;;;;;;;;;2608404;54;20426;-78
2023/11/24 00:14:25;;;;;;;7.67;2.33;;;;;;;;;;2608206;47;20421;-77
2023/11/24 00:16:51;;;;;;;8.57;3.27;;;;;;;;;;2608466;39;20524;-76
2023/11/24 00:19:17;;;;;;;15.73;4.17;;;;;;;;;;2610698;54;20465;-78
2023/11/24 00:21:43;;;;;;;11.70;3.23;;;;;;;;;;2611278;54;21084;-77
2023/11/24 00:24:09;;;;;;;14.63;4.00;;;;;;;;;;2611448;46;20446;-78
2023/11/24 00:26:36;;;;;;;7.93;3.73;;;;;;;;;;2611213;54;20430;-77
2023/11/24 00:29:02;;;;;;;9.27;2.80;;;;;;;;;;2611163;47;20980;-74
2023/11/24 00:31:28;;;;;;;14.53;2.60;;;;;;;;;;2610208;54;20454;-76
2023/11/24 00:33:55;;;;;;;5.50;2.83;;;;;;;;;;2611002;54;20417;-77
2023/11/24 00:36:23;;;;;;;9.50;3.13;;;;;;;;;;2610970;46;21962;-78
2023/11/24 00:38:52;;;;;;;9.97;3.70;;;;;;;;;;2611143;54;21073;-75
2023/11/24 00:41:19;;;;;;;6.20;2.77;;;;;;;;;;2610980;54;21026;-77
2023/11/24 00:43:50;;;;;;;6.97;2.53;;;;;;;;;;2611210;46;20988;-78
2023/11/24 00:46:19;;;;;;;9.83;2.23;;;;;;;;;;2610638;54;20506;-76
2023/11/24 00:48:45;;;;;;;7.10;2.87;;;;;;;;;;2611293;39;20926;-81
2023/11/24 00:51:11;;;;;;;9.73;3.10;;;;;;;;;;2608603;54;20417;-75
2023/11/24 00:53:37;;;;;;;10.80;2.20;;;;;;;;;;2608799;54;20413;-75
2023/11/24 00:56:03;;;;;;;10.73;2.83;;;;;;;;;;2608534;54;20431;-75
2023/11/24 00:58:29;;;;;;;11.00;2.27;;;;;;;;;;2607921;54;20426;-75
2023/11/24 01:00:55;;;;;;;5.23;2.17;;;;;;;;;;2610032;54;20574;-75
2023/11/24 01:03:22;;;;;;;3.13;1.30;;;;;;;;;;2609144;54;20434;-75
2023/11/24 01:05:53;;;;;;;9.30;2.10;;;;;;;;;;2606285;54;20479;-75
2023/11/24 01:08:20;;;;;;;4.23;1.67;;;;;;;;;;2606351;54;20974;-75
2023/11/24 01:10:46;;;;;;;6.60;1.93;;;;;;;;;;2606773;54;20409;-74
2023/11/24 01:13:13;;;;;;;7.77;1.80;;;;;;;;;;2605781;54;20397;-74
2023/11/24 01:15:39;;;;;;;5.20;1.23;;;;;;;;;;2606372;47;20409;-75
2023/11/24 01:18:06;;;;;;;6.00;2.17;;;;;;;;;;2606154;54;21183;-76
2023/11/24 01:20:34;;;;;;;7.57;1.90;;;;;;;;;;2609028;54;20961;-75
2023/11/24 01:23:00;;;;;;;3.33;1.70;;;;;;;;;;2608286;47;21477;-75
2023/11/24 01:25:27;;;;;;;7.33;2.13;;;;;;;;;;2608999;39;20483;-73
2023/11/24 01:27:53;;;;;;;13.33;2.30;;;;;;;;;;2609283;54;20430;-75
2023/11/24 01:30:19;;;;;;;4.53;2.30;;;;;;;;;;2608107;47;20454;-75
2023/11/24 01:32:45;;;;;;;4.43;2.07;;;;;;;;;;2609958;54;20470;-74
2023/11/24 01:35:11;;;;;;;13.20;2.97;;;;;;;;;;2609899;54;20429;-75
2023/11/24 01:37:37;;;;;;;11.53;2.70;;;;;;;;;;2611583;54;20421;-74
2023/11/24 01:40:05;;;;;;;7.77;2.43;;;;;;;;;;2610118;54;20430;-76
2023/11/24 01:42:36;;;;;;;4.03;2.00;;;;;;;;;;2610539;54;20432;-77
2023/11/24 01:45:04;;;;;;;3.63;1.80;;;;;;;;;;2610236;54;20411;-77
2023/11/24 01:47:30;;;;;;;9.70;3.73;;;;;;;;;;2609333;54;20425;-77
2023/11/24 01:49:56;;;;;;;5.50;2.20;;;;;;;;;;2611978;47;20475;-78
2023/11/24 01:52:22;;;;;;;5.20;2.00;;;;;;;;;;2612367;49;21213;-77
2023/11/24 01:54:48;;;;;;;6.30;1.93;;;;;;;;;;2612657;47;20397;-78
2023/11/24 01:57:15;;;;;;;10.80;2.20;;;;;;;;;;2613138;54;20413;-77
2023/11/24 01:59:41;;;;;;;7.70;1.60;;;;;;;;;;2610759;54;20426;-78
2023/11/24 02:02:07;;;;;;;11.40;1.97;;;;;;;;;;2611753;54;20417;-78
2023/11/24 02:04:33;;;;;;;7.90;2.07;;;;;;;;;;2610888;54;20437;-77
2023/11/24 02:07:01;;;;;;;3.23;1.70;;;;;;;;;;2611482;39;20876;-76
2023/11/24 02:09:30;;;;;;;7.80;1.93;;;;;;;;;;2610423;54;20421;-77
2023/11/24 02:11:56;;;;;;;9.57;2.57;;;;;;;;;;2610537;54;20536;-76
2023/11/24 02:14:23;;;;;;;9.60;1.80;;;;;;;;;;2609841;54;20440;-78
2023/11/24 02:16:49;;;;;;;4.03;1.40;;;;;;;;;;2609700;54;20932;-79
2023/11/24 02:19:16;;;;;;;2.10;1.00;;;;;;;;;;2609104;54;20401;-75
2023/11/24 02:21:45;;;;;;;8.10;1.70;;;;;;;;;;2610083;54;20433;-77
2023/11/24 02:24:11;;;;;;;5.20;1.80;;;;;;;;;;2609905;54;20412;-78
2023/11/24 02:26:37;;;;;;;5.57;1.73;;;;;;;;;;2609688;54;20436;-77
2023/11/24 02:29:03;;;;;;;2.10;1.20;;;;;;;;;;2611118;54;20416;-77
2023/11/24 02:31:32;;;;;;;7.37;2.13;;;;;;;;;;2611352;54;20543;-77
2023/11/24 02:33:58;;;;;;;4.70;1.60;;;;;;;;;;2609790;54;20451;-76
2023/11/24 02:36:30;;;;;;;7.73;2.03;;;;;;;;;;2609724;47;20416;-77
2023/11/24 02:38:56;;;;;;;6.27;2.20;;;;;;;;;;2610873;54;20385;-76
2023/11/24 02:41:22;;;;;;;11.33;1.57;;;;;;;;;;2610870;54;20491;-77
2023/11/24 02:43:48;;;;;;;5.07;2.07;;;;;;;;;;2611518;39;20880;-77
2023/11/24 02:46:15;;;;;;;4.87;1.60;;;;;;;;;;2610621;54;20536;-76
2023/11/24 02:48:42;;;;;;;5.87;1.73;;;;;;;;;;2610495;54;20418;-77
2023/11/24 02:51:09;;;;;;;2.37;1.40;;;;;;;;;;2610614;47;20424;-76
2023/11/24 02:53:37;;;;;;;7.13;1.73;;;;;;;;;;2612551;54;20417;-75
2023/11/24 02:56:06;;;;;;;7.30;1.97;;;;;;;;;;2612574;54;20447;-75
2023/11/24 02:58:36;;;;;;;5.93;1.60;;;;;;;;;;2612556;54;20493;-75
2023/11/24 03:01:02;;;;;;;5.03;1.50;;;;;;;;;;2612583;54;21231;-74
2023/11/24 03:03:38;;;;;;;4.73;1.73;;;;;;;;;;2612648;54;20427;-74
2023/11/24 03:06:12;;;;;;;4.43;1.70;;;;;;;;;;2611883;54;21305;-74
2023/11/24 03:08:39;;;;;;;5.10;1.90;;;;;;;;;;2613536;39;20784;-74
2023/11/24 03:11:06;;;;;;;10.73;1.50;;;;;;;;;;2607918;54;20407;-74
2023/11/24 03:13:33;;;;;;;6.50;1.70;;;;;;;;;;2606375;54;20433;-75
2023/11/24 03:15:59;;;;;;;5.33;1.60;;;;;;;;;;2609226;54;20456;-75
2023/11/24 03:18:25;;;;;;;4.00;1.80;;;;;;;;;;2609297;39;20721;-74
2023/11/24 03:20:51;;;;;;;2.07;1.30;;;;;;;;;;2610640;54;20380;-74
2023/11/24 03:23:18;;;;;;;5.90;2.30;;;;;;;;;;2609675;54;20998;-76
2023/11/24 03:25:44;;;;;;;15.10;3.50;;;;;;;;;;2606195;47;20530;-74
2023/11/24 03:28:10;;;;;;;12.90;2.80;;;;;;;;;;2606343;54;20389;-74
2023/11/24 03:30:36;;;;;;;8.93;2.87;;;;;;;;;;2607272;54;20465;-75
2023/11/24 03:33:02;;;;;;;5.30;2.20;;;;;;;;;;2605606;50;20396;-74
2023/11/24 03:35:29;;;;;;;5.90;2.37;;;;;;;;;;2606778;54;20433;-74
2023/11/24 03:37:55;;;;;;;8.53;2.80;;;;;;;;;;2605658;54;20425;-74
2023/11/24 03:40:21;;;;;;;12.07;2.83;;;;;;;;;;2606350;39;20798;-74
2023/11/24 03:42:47;;;;;;;9.07;3.17;;;;;;;;;;2607633;54;20395;-77
2023/11/24 03:45:13;;;;;;;6.73;2.33;;;;;;;;;;2606180;54;20413;-73
2023/11/24 03:47:39;;;;;;;8.40;2.90;;;;;;;;;;2605854;46;20428;-74
2023/11/24 03:50:06;;;;;;;21.87;4.97;;;;;;;;;;2608689;54;20487;-74
2023/11/24 03:52:32;;;;;;;12.43;3.97;;;;;;;;;;2607286;54;20398;-75
2023/11/24 03:55:00;;;;;;;7.77;3.20;;;;;;;;;;2606406;47;20528;-74
2023/11/24 03:57:26;;;;;;;10.27;5.67;;;;;;;;;;2606803;54;20448;-76
2023/11/24 03:59:52;;;;;;;17.80;3.40;;;;;;;;;;2607405;39;20785;-76
2023/11/24 04:02:18;;;;;;;15.10;2.80;;;;;;;;;;2611508;50;20638;-77
2023/11/24 04:04:46;;;;;;;8.93;2.60;;;;;;;;;;2612236;39;20776;-77
2023/11/24 04:07:12;;;;;;;9.43;3.67;;;;;;;;;;2611487;54;20421;-77
2023/11/24 04:09:38;;;;;;;7.70;3.00;;;;;;;;;;2611339;54;20413;-76
2023/11/24 04:12:06;;;;;;;13.03;3.20;;;;;;;;;;2611832;31;20944;-77
2023/11/24 04:14:33;;;;;;;9.10;2.73;;;;;;;;;;2610390;54;20435;-77
2023/11/24 04:16:59;;;;;;;12.63;3.53;;;;;;;;;;2608923;54;20428;-76
2023/11/24 04:19:26;;;;;;;13.17;2.90;;;;;;;;;;2609877;54;20417;-75
2023/11/24 04:21:54;;;;;;;15.97;3.37;;;;;;;;;;2610761;54;20426;-76
2023/11/24 04:24:23;;;;;;;9.37;2.70;;;;;;;;;;2611201;54;20436;-76
2023/11/24 04:26:49;;;;;;;11.27;2.20;;;;;;;;;;2610869;47;20927;-76
2023/11/24 04:29:15;;;;;;;3.40;2.40;;;;;;;;;;2610397;54;20399;-76
2023/11/24 04:31:41;;;;;;;10.90;2.83;;;;;;;;;;2610426;54;20540;-76
2023/11/24 04:34:09;;;;;;;15.50;3.53;;;;;;;;;;2610671;54;20991;-76
2023/11/24 04:36:36;;;;;;;11.20;2.73;;;;;;;;;;2610241;54;20909;-76
2023/11/24 04:39:02;;;;;;;8.40;3.30;;;;;;;;;;2609990;54;20968;-76
2023/11/24 04:41:28;;;;;;;7.27;2.57;;;;;;;;;;2610640;54;20446;-75
2023/11/24 04:44:01;;;;;;;22.07;2.90;;;;;;;;;;2609984;39;20816;-77
2023/11/24 04:46:26;;;;;;;12.20;2.93;;;;;;;;;;2611338;54;20412;-75
2023/11/24 04:48:56;;;;;;;8.07;2.07;;;;;;;;;;2609845;54;20424;-76
2023/11/24 04:51:23;;;;;;;9.60;2.00;;;;;;;;;;2609076;54;20404;-76
2023/11/24 04:53:49;;;;;;;6.67;1.37;;;;;;;;;;2607782;47;20467;-76
2023/11/24 04:56:15;;;;;;;10.17;2.40;;;;;;;;;;2607580;47;20937;-76
2023/11/24 04:58:41;;;;;;;6.57;1.33;;;;;;;;;;2608639;54;20939;-77
2023/11/24 05:01:08;;;;;;;5.27;1.77;;;;;;;;;;2607806;54;21004;-76
2023/11/24 05:03:34;;;;;;;6.33;2.00;;;;;;;;;;2607719;54;20399;-76
2023/11/24 05:06:01;;;;;;;8.57;3.20;;;;;;;;;;2607050;39;20940;-75
2023/11/24 05:08:27;;;;;;;5.10;1.90;;;;;;;;;;2607965;54;20743;-75
2023/11/24 05:10:53;;;;;;;6.27;2.37;;;;;;;;;;2608047;47;20978;-75
2023/11/24 05:13:19;;;;;;;5.10;2.10;;;;;;;;;;2608178;54;20427;-75
2023/11/24 05:15:46;;;;;;;3.80;2.23;;;;;;;;;;2604246;54;20408;-76
2023/11/24 05:18:12;;;;;;;14.20;2.60;;;;;;;;;;2606625;54;20402;-77
2023/11/24 05:20:38;;;;;;;6.77;2.50;;;;;;;;;;2606875;54;20409;-77
2023/11/24 05:23:05;;;;;;;3.20;2.03;;;;;;;;;;2607293;54;20421;-76
2023/11/24 05:25:31;;;;;;;5.00;2.80;;;;;;;;;;2605971;54;20559;-76
2023/11/24 05:27:57;;;;;;;3.30;1.80;;;;;;;;;;2606125;54;20424;-75
2023/11/24 05:30:23;;;;;;;12.23;2.77;;;;;;;;;;2607222;54;20495;-74
2023/11/24 05:32:49;;;;;;;3.70;2.17;;;;;;;;;;2604848;54;21076;-74
2023/11/24 05:35:16;;;;;;;11.83;4.70;;;;;;;;;;2605476;54;21294;-74
2023/11/24 05:37:42;;;;;;;4.60;2.10;;;;;;;;;;2604442;54;20416;-74
2023/11/24 05:40:09;;;;;;;6.27;2.33;;;;;;;;;;2607319;31;20852;-74
2023/11/24 05:42:35;;;;;;;5.10;1.80;;;;;;;;;;2605516;54;21223;-74
2023/11/24 05:45:02;;;;;;;14.43;2.53;;;;;;;;;;2604543;54;20954;-75
2023/11/24 05:47:29;;;;;;;9.93;3.10;;;;;;;;;;2605342;54;20387;-75
2023/11/24 05:49:55;;;;;;;3.63;1.87;;;;;;;;;;2604442;54;20437;-74
2023/11/24 05:52:21;;;;;;;4.90;1.90;;;;;;;;;;2605261;54;20418;-75
2023/11/24 05:54:48;;;;;;;5.90;2.30;;;;;;;;;;2604296;54;20403;-74
2023/11/24 05:57:15;;;;;;;5.77;2.60;;;;;;;;;;2603764;54;20551;-73
2023/11/24 05:59:41;;;;;;;5.27;2.73;;;;;;;;;;2604968;54;20857;-75
2023/11/24 06:02:07;;;;;;;2.93;2.00;;;;;;;;;;2605804;54;20436;-77
2023/11/24 06:04:33;;;;;;;10.13;3.10;;;;;;;;;;2608635;39;20798;-75
2023/11/24 06:06:59;;;;;;;17.33;2.60;;;;;;;;;;2605279;47;20391;-75
2023/11/24 06:09:25;;;;;;;8.50;2.20;;;;;;;;;;2609796;54;20482;-78
2023/11/24 06:11:51;;;;;;;10.33;2.50;;;;;;;;;;2612188;54;20500;-75
2023/11/24 06:14:17;;;;;;;5.93;2.33;;;;;;;;;;2608898;46;20435;-74
2023/11/24 06:16:43;;;;;;;7.53;2.23;;;;;;;;;;2609042;54;21037;-75
2023/11/24 06:19:09;;;;;;;5.80;2.40;;;;;;;;;;2612219;54;20425;-75
2023/11/24 06:21:35;;;;;;;6.90;2.90;;;;;;;;;;2611687;54;20417;-74
2023/11/24 06:24:02;;;;;;;8.20;2.70;;;;;;;;;;2612383;54;20512;-75
2023/11/24 06:26:30;;;;;;;4.67;2.80;;;;;;;;;;2609293;47;20455;-74
2023/11/24 06:28:56;;;;;;;5.87;2.20;;;;;;;;;;2610571;54;20479;-74
2023/11/24 06:31:23;;;;;;;5.00;2.40;;;;;;;;;;2612575;54;20462;-74
2023/11/24 06:33:49;;;;;;;8.63;3.37;;;;;;;;;;2612026;54;20385;-75
2023/11/24 06:36:15;;;;;;;6.33;3.43;;;;;;;;;;2612050;54;21431;-74
2023/11/24 06:38:41;;;;;;;10.87;1.90;;;;;;;;;;2612896;54;21009;-74
2023/11/24 06:41:08;;;;;;;13.00;2.30;;;;;;;;;;2609092;54;22239;-74
2023/11/24 06:43:34;;;;;;;11.20;3.00;;;;;;;;;;2608844;51;20451;-75
2023/11/24 06:46:01;;;;;;;6.93;3.03;;;;;;;;;;2607709;54;20917;-73
2023/11/24 06:48:28;;;;;;;4.07;2.37;;;;;;;;;;2611066;54;20480;-74
2023/11/24 06:50:54;;;;;;;3.37;1.77;;;;;;;;;;2611059;54;20927;-73
2023/11/24 06:53:20;;;;;;;9.67;2.20;;;;;;;;;;2611244;54;20419;-74
2023/11/24 06:55:47;;;;;;;5.17;1.53;;;;;;;;;;2611324;39;20850;-74
2023/11/24 06:58:13;;;;;;;11.60;2.67;;;;;;;;;;2610362;54;20435;-75
2023/11/24 07:00:39;;;;;;;5.93;2.60;;;;;;;;;;2609366;51;20426;-74
2023/11/24 07:03:06;;;;;;;11.73;2.97;;;;;;;;;;2609511;47;20415;-74
2023/11/24 07:05:32;;;;;;;4.53;2.23;;;;;;;;;;2609648;47;20966;-74
2023/11/24 07:07:58;;;;;;;7.53;3.13;;;;;;;;;;2610270;47;20969;-75
2023/11/24 07:10:26;;;;;;;5.27;2.40;;;;;;;;;;2611685;54;20546;-74
2023/11/24 07:12:52;;;;;;;8.47;2.70;;;;;;;;;;2610441;54;20436;-74
2023/11/24 07:15:18;;;;;;;4.73;1.93;;;;;;;;;;2610521;54;20395;-74
2023/11/24 07:17:45;;;;;;;4.90;1.97;;;;;;;;;;2610906;54;20419;-74
2023/11/24 07:20:11;;;;;;;7.57;2.83;;;;;;;;;;2610855;47;20420;-75
2023/11/24 07:22:38;;;;;;;7.80;2.20;;;;;;;;;;2611417;54;20391;-75
2023/11/24 07:25:04;;;;;;;16.47;3.00;;;;;;;;;;2611904;54;20406;-74
2023/11/24 07:27:30;;;;;;;6.27;2.17;;;;;;;;;;2611600;47;20427;-75
2023/11/24 07:29:56;;;;;;;9.70;2.50;;;;;;;;;;2611386;54;20483;-75
2023/11/24 07:32:27;;;;;;;7.33;2.53;;;;;;;;;;2611655;54;20396;-75
2023/11/24 07:34:53;;;;;;;3.90;2.00;;;;;;;;;;2610840;54;20412;-74
2023/11/24 07:37:20;;;;;;;13.57;2.97;;;;;;;;;;2612064;54;20396;-75
2023/11/24 07:39:46;;;;;;;8.73;2.77;;;;;;;;;;2611870;54;20449;-75
2023/11/24 07:42:12;;;;;;;7.63;2.17;;;;;;;;;;2610658;47;20431;-74
2023/11/24 07:44:39;;;;;;;10.40;1.77;;;;;;;;;;2611674;39;20741;-74
2023/11/24 07:47:06;;;;;;;9.33;2.20;;;;;;;;;;2610700;54;20435;-75
2023/11/24 07:49:33;;;;;;;8.80;2.47;;;;;;;;;;2612207;39;20790;-76
2023/11/24 07:52:01;;;;;;;7.83;2.07;;;;;;;;;;2611193;54;20418;-75
2023/11/24 07:54:27;;;;;;;4.27;2.07;;;;;;;;;;2610894;46;20426;-74
2023/11/24 07:56:53;;;;;;;5.43;2.30;;;;;;;;;;2612221;54;20411;-74
2023/11/24 07:59:19;;;;;;;8.70;1.93;;;;;;;;;;2610228;54;20387;-74
2023/11/24 08:01:45;;;;;;;13.80;1.50;;;;;;;;;;2609080;54;20420;-74
2023/11/24 08:04:11;;;;;;;5.73;1.97;;;;;;;;;;2611223;54;20405;-74
2023/11/24 08:06:38;;;;;;;9.07;2.67;;;;;;;;;;2610942;47;21023;-75
2023/11/24 08:09:07;;;;;;;3.10;2.30;;;;;;;;;;2611796;54;20430;-74
2023/11/24 08:11:33;;;;;;;4.73;1.80;;;;;;;;;;2610824;54;20379;-74
2023/11/24 08:14:00;;;;;;;5.13;1.87;;;;;;;;;;2611897;54;20408;-73
2023/11/24 08:16:26;;;;;;;4.43;2.40;;;;;;;;;;2611123;46;20966;-74
2023/11/24 08:18:52;;;;;;;8.23;2.23;;;;;;;;;;2612043;54;20439;-74
2023/11/24 08:21:19;;;;;;;6.80;2.77;;;;;;;;;;2612454;39;20940;-74
2023/11/24 08:23:46;;;;;;;14.20;2.83;;;;;;;;;;2611549;54;20417;-75
2023/11/24 08:26:15;;;;;;;5.00;3.13;;;;;;;;;;2610520;54;21034;-73
2023/11/24 08:28:43;;;;;;;9.87;2.60;;;;;;;;;;2612027;54;20523;-74
2023/11/24 08:31:09;;;;;;;5.20;2.57;;;;;;;;;;2610470;54;20479;-74
2023/11/24 08:33:35;;;;;;;6.43;1.93;;;;;;;;;;2611384;39;20548;-74
2023/11/24 08:36:01;;;;;;;5.83;2.27;;;;;;;;;;2611329;54;20403;-75
2023/11/24 08:38:27;;;;;;;10.10;3.30;;;;;;;;;;2609577;47;20434;-75
2023/11/24 08:40:53;;;;;;;3.70;2.20;;;;;;;;;;2611453;54;20420;-75
2023/11/24 08:43:21;;;;;;;6.27;4.63;;;;;;;;;;2610955;54;20438;-75
2023/11/24 08:45:47;;;;;;;5.13;2.67;;;;;;;;;;2610409;54;20407;-75
2023/11/24 08:48:13;;;;;;;6.90;2.53;;;;;;;;;;2609969;54;20424;-75
2023/11/24 08:50:40;;;;;;;5.87;1.73;;;;;;;;;;2610428;46;20950;-74
2023/11/24 08:53:06;;;;;;;5.00;2.03;;;;;;;;;;2610992;39;20474;-74
2023/11/24 08:55:32;;;;;;;4.13;1.93;;;;;;;;;;2611052;46;20546;-74
2023/11/24 08:57:59;;;;;;;2.27;1.63;;;;;;;;;;2611098;54;20922;-74
2023/11/24 09:00:27;;;;;;;3.03;1.83;;;;;;;;;;2610645;54;20923;-74
2023/11/24 09:02:53;;;;;;;4.43;2.00;;;;;;;;;;2610431;54;20408;-75
2023/11/24 09:05:19;;;;;;;3.60;1.20;;;;;;;;;;2609760;54;20384;-74
2023/11/24 09:07:45;;;;;;;3.97;1.93;;;;;;;;;;2611213;54;20534;-74
2023/11/24 09:10:12;;;;;;;2.07;1.70;;;;;;;;;;2611381;54;20415;-74
2023/11/24 09:12:38;;;;;;;6.53;2.20;;;;;;;;;;2609699;54;20485;-75
2023/11/24 09:15:07;;;;;;;10.37;2.80;;;;;;;;;;2608875;54;20459;-74
2023/11/24 09:17:36;;;;;;;6.87;2.40;;;;;;;;;;2627701;36;20573;-75
2023/11/24 09:20:05;;;;;;;4.50;1.77;;;;;;;;;;2610209;31;20877;-75
2023/11/24 09:22:33;;;;;;;5.90;2.07;;;;;;;;;;2609509;54;20470;-74
2023/11/24 09:25:02;;;;;;;8.43;2.33;;;;;;;;;;2611264;54;20423;-74
2023/11/24 09:27:28;;;;;;;4.30;2.60;;;;;;;;;;2609327;54;20417;-75
2023/11/24 09:29:54;;;;;;;7.27;2.77;;;;;;;;;;2608394;47;20555;-74
2023/11/24 09:32:20;;;;;;;9.40;2.73;;;;;;;;;;2610196;54;20925;-75
2023/11/24 09:34:47;;;;;;;5.00;3.37;;;;;;;;;;2609532;54;20642;-76
2023/11/24 09:37:14;;;;;;;4.30;2.67;;;;;;;;;;2611542;54;20404;-74
2023/11/24 09:39:40;;;;;;;4.53;1.40;;;;;;;;;;2608937;54;20429;-74
2023/11/24 09:42:09;;;;;;;4.80;1.33;;;;;;;;;;2607914;54;20383;-75
2023/11/24 09:44:39;;;;;;;5.00;1.80;;;;;;;;;;2611616;54;20424;-76
2023/11/24 09:47:05;;;;;;;5.90;1.83;;;;;;;;;;2613027;54;20418;-76
2023/11/24 09:49:31;;;;;;;5.00;1.97;;;;;;;;;;2611482;47;20497;-76
2023/11/24 09:51:59;;;;;;;3.50;1.37;;;;;;;;;;2612810;54;20390;-75
2023/11/24 09:54:26;;;;;;;6.03;2.27;;;;;;;;;;2611802;54;20406;-76
2023/11/24 09:56:53;;;;;;;3.10;1.93;;;;;;;;;;2613214;54;20456;-76
2023/11/24 09:59:19;;;;;;;7.47;2.37;;;;;;;;;;2612408;54;20398;-76
2023/11/24 10:01:48;;;;;;;4.00;2.03;;;;;;;;;;2612000;54;20409;-75
2023/11/24 10:04:14;;;;;;;2.90;2.37;;;;;;;;;;2612914;54;20410;-76
2023/11/24 10:06:43;;;;;;;3.93;2.43;;;;;;;;;;2612976;54;20527;-75
2023/11/24 10:09:10;;;;;;;2.03;1.63;;;;;;;;;;2613352;54;20401;-76
2023/11/24 10:11:38;;;;;;;5.10;2.07;;;;;;;;;;2612513;50;20421;-75
2023/11/24 10:14:07;;;;;;;6.60;2.00;;;;;;;;;;2611920;54;20423;-74
2023/11/24 10:16:33;;;;;;;7.10;1.60;;;;;;;;;;2612103;54;20431;-75
2023/11/24 10:19:00;;;;;;;4.17;2.03;;;;;;;;;;2613327;54;20392;-76
2023/11/24 10:21:30;;;;;;;8.63;1.80;;;;;;;;;;2613459;54;20507;-73
2023/11/24 10:24:03;;;;;;;3.33;2.03;;;;;;;;;;2612734;39;20850;-75
2023/11/24 10:26:29;;;;;;;3.30;1.50;;;;;;;;;;2611984;54;20415;-76
2023/11/24 10:28:57;;;;;;;4.30;1.77;;;;;;;;;;2612771;54;20429;-76
2023/11/24 10:31:23;;;;;;;6.13;3.00;;;;;;;;;;2613207;54;20457;-76
2023/11/24 10:33:49;;;;;;;4.80;1.20;;;;;;;;;;2612274;47;20434;-76
2023/11/24 10:36:17;;;;;;;3.07;1.13;;;;;;;;;;2613238;54;20507;-76
2023/11/24 10:38:45;;;;;;;1.67;1.00;;;;;;;;;;2613600;54;21349;-75
2023/11/24 10:41:18;;;;;;;2.47;1.03;;;;;;;;;;2612682;47;20395;-76
2023/11/24 10:43:47;;;;;;;3.60;1.20;;;;;;;;;;2608488;54;20648;-76
2023/11/24 10:46:13;;;;;;;5.57;0.97;;;;;;;;;;2609657;54;20422;-75
2023/11/24 10:48:51;;;;;;;6.43;1.40;;;;;;;;;;2610369;54;20415;-75
2023/11/24 10:51:31;;;;;;;3.67;1.37;;;;;;;;;;2612336;54;21028;-75
2023/11/24 10:54:00;;;;;;;2.13;1.27;;;;;;;;;;2613646;54;20433;-75
2023/11/24 10:56:30;;;;;;;2.03;1.13;;;;;;;;;;2613945;54;20459;-75
2023/11/24 10:58:57;;;;;;;2.20;1.07;;;;;;;;;;2613257;54;20985;-73
2023/11/24 11:01:26;;;;;;;2.70;1.13;;;;;;;;;;2612474;54;20432;-77
2023/11/24 11:03:55;;;;;;;2.53;0.90;;;;;;;;;;2613700;54;20419;-76
2023/11/24 11:06:21;;;;;;;4.07;1.27;;;;;;;;;;2614266;54;20419;-76
2023/11/24 11:09:03;;;;;;;2.70;1.17;;;;;;;;;;2613475;54;20404;-76
2023/11/24 11:11:36;;;;;;;2.27;1.73;;;;;;;;;;2612488;39;20787;-76
2023/11/24 11:14:02;;;;;;;2.10;1.47;;;;;;;;;;2612198;54;20427;-76
2023/11/24 11:16:29;;;;;;;2.13;1.20;;;;;;;;;;2612269;54;20967;-76
2023/11/24 11:18:56;;;;;;;4.27;1.23;;;;;;;;;;2613150;54;20407;-77
2023/11/24 11:21:31;;;;;;;3.43;1.47;;;;;;;;;;2612177;46;20425;-77
2023/11/24 11:23:58;;;;;;;7.40;1.93;;;;;;;;;;2611877;54;20396;-76
2023/11/24 11:26:42;;;;;;;1.30;1.20;;;;;;;;;;2610472;46;20427;-77
2023/11/24 11:29:09;;;;;;;2.20;1.43;;;;;;;;;;2610155;47;20419;-78
2023/11/24 11:31:37;;;;;;;2.70;1.30;;;;;;;;;;2610359;54;20482;-76
2023/11/24 11:34:16;;;;;;;4.30;3.07;;;;;;;;;;2609840;54;20393;-76
2023/11/24 11:36:49;;;;;;;1.93;1.73;;;;;;;;;;2609627;54;20407;-77
2023/11/24 11:39:19;;;;;;;5.30;1.70;;;;;;;;;;2609213;54;20425;-77
2023/11/24 11:41:49;;;;;;;6.33;2.20;;;;;;;;;;2610566;54;20448;-75
2023/11/24 11:44:36;;;;;;;3.90;2.57;;;;;;;;;;2609280;54;20466;-77
2023/11/24 11:47:03;;;;;;;3.80;1.87;;;;;;;;;;2608965;54;21234;-78
2023/11/24 11:49:33;;;;;;;5.20;2.27;;;;;;;;;;2611369;54;20436;-76
2023/11/24 11:52:06;;;;;;;10.30;2.00;;;;;;;;;;2610887;54;20974;-78
2023/11/24 11:54:33;;;;;;;3.60;2.17;;;;;;;;;;2609912;39;20473;-76
2023/11/24 11:56:59;;;;;;;8.07;1.93;;;;;;;;;;2611070;54;20426;-77
2023/11/24 11:59:26;;;;;;;3.40;1.53;;;;;;;;;;2611580;47;20987;-78
2023/11/24 12:01:52;;;;;;;6.47;2.30;;;;;;;;;;2611265;47;20420;-78
2023/11/24 12:04:19;;;;;;;2.20;1.47;;;;;;;;;;2611591;54;20539;-77
2023/11/24 12:06:51;;;;;;;5.60;1.50;;;;;;;;;;2612516;54;20424;-77
2023/11/24 12:09:20;;;;;;;9.93;2.80;;;;;;;;;;2610876;51;20461;-77
2023/11/24 12:11:46;;;;;;;4.00;2.00;;;;;;;;;;2611318;50;20440;-75
2023/11/24 12:14:13;;;;;;;4.80;1.63;;;;;;;;;;2609071;54;20409;-76
2023/11/24 12:16:40;;;;;;;9.03;2.37;;;;;;;;;;2609648;54;20505;-75
2023/11/24 12:19:07;;;;;;;3.63;1.33;;;;;;;;;;2612133;54;20491;-75
2023/11/24 12:21:34;;;;;;;5.70;2.03;;;;;;;;;;2613626;54;20655;-75
2023/11/24 12:24:01;;;;;;;9.50;1.93;;;;;;;;;;2611257;54;20507;-75
2023/11/24 12:26:27;;;;;;;3.97;1.40;;;;;;;;;;2612904;54;20417;-75
2023/11/24 12:28:56;;;;;;;2.47;1.40;;;;;;;;;;2612553;31;20889;-75
2023/11/24 12:31:26;;;;;;;11.53;1.93;;;;;;;;;;2612809;47;20999;-75
2023/11/24 12:33:52;;;;;;;6.93;1.87;;;;;;;;;;2612972;54;20448;-74
2023/11/24 12:36:18;;;;;;;2.10;1.13;;;;;;;;;;2611828;54;20426;-75
2023/11/24 12:38:45;;;;;;;2.50;1.40;;;;;;;;;;2613113;54;20543;-76
2023/11/24 12:41:12;;;;;;;4.90;2.00;;;;;;;;;;2611907;54;20411;-75
2023/11/24 12:43:38;;;;;;;2.43;1.03;;;;;;;;;;2610741;54;20466;-76
2023/11/24 12:46:04;;;;;;;4.37;1.60;;;;;;;;;;2610732;47;20515;-76
2023/11/24 12:48:34;;;;;;;7.20;1.40;;;;;;;;;;2611117;54;20418;-76
2023/11/24 12:51:03;;;;;;;5.20;2.83;;;;;;;;;;2612020;39;20759;-77
2023/11/24 12:53:33;;;;;;;2.20;1.00;;;;;;;;;;2612276;39;20795;-76
2023/11/24 12:55:59;;;;;;;2.03;1.27;;;;;;;;;;2612095;39;20476;-75
2023/11/24 12:58:25;;;;;;;7.60;3.40;;;;;;;;;;2609165;39;20818;-75
2023/11/24 13:00:53;;;;;;;5.00;1.87;;;;;;;;;;2605946;39;20809;-76
2023/11/24 13:03:19;;;;;;;2.20;1.10;;;;;;;;;;2607715;54;20394;-74
2023/11/24 13:05:45;;;;;;;6.10;3.03;;;;;;;;;;2606552;47;20415;-77
2023/11/24 13:08:12;;;;;;;5.70;2.10;;;;;;;;;;2608966;54;20475;-76
2023/11/24 13:10:40;;;;;;;5.53;2.83;;;;;;;;;;2606575;54;20835;-76
2023/11/24 13:13:08;;;;;;;2.60;1.60;;;;;;;;;;2607721;31;20839;-75
2023/11/24 13:15:34;;;;;;;7.80;2.13;;;;;;;;;;2606465;47;20432;-76
2023/11/24 13:18:00;;;;;;;3.47;1.63;;;;;;;;;;2607515;54;20457;-76
2023/11/24 13:20:32;;;;;;;4.30;3.00;;;;;;;;;;2608613;54;20423;-76
2023/11/24 13:22:58;;;;;;;3.60;1.90;;;;;;;;;;2608204;54;20484;-76
2023/11/24 13:25:26;;;;;;;4.17;2.53;;;;;;;;;;2609457;46;20422;-76
2023/11/24 13:27:53;;;;;;;6.90;2.47;;;;;;;;;;2611070;54;20415;-76
2023/11/24 13:30:21;;;;;;;4.43;1.77;;;;;;;;;;2610431;54;20460;-75
2023/11/24 13:32:47;;;;;;;4.10;1.80;;;;;;;;;;2609917;54;20552;-75
2023/11/24 13:35:15;;;;;;;28.00;3.43;;;;;;;;;;2608420;54;20524;-75
2023/11/24 13:37:42;;;;;;;5.57;2.70;;;;;;;;;;2608965;39;20829;-75
2023/11/24 13:40:17;;;;;;;8.50;2.40;;;;;;;;;;2607878;54;20420;-74
2023/11/24 13:42:44;;;;;;;5.30;2.50;;;;;;;;;;2609769;46;20522;-75
2023/11/24 13:45:11;;;;;;;4.60;1.87;;;;;;;;;;2608656;47;20435;-73
2023/11/24 13:47:37;;;;;;;3.00;1.90;;;;;;;;;;2609501;31;20943;-75
2023/11/24 13:50:04;;;;;;;7.03;1.30;;;;;;;;;;2608650;47;20439;-75
2023/11/24 13:52:33;;;;;;;6.93;1.67;;;;;;;;;;2608817;54;20954;-74
2023/11/24 13:55:00;;;;;;;5.80;2.43;;;;;;;;;;2606785;54;20399;-74
2023/11/24 13:57:26;;;;;;;5.90;1.77;;;;;;;;;;2608425;54;20400;-74
2023/11/24 13:59:53;;;;;;;7.40;1.83;;;;;;;;;;2607367;54;20391;-74
2023/11/24 14:02:19;;;;;;;3.50;1.40;;;;;;;;;;2607154;54;20434;-73
2023/11/24 14:04:45;;;;;;;4.20;1.90;;;;;;;;;;2607478;54;20441;-75
2023/11/24 14:07:14;;;;;;;4.07;1.50;;;;;;;;;;2607125;54;20415;-76
2023/11/24 14:09:40;;;;;;;11.70;3.00;;;;;;;;;;2607418;54;20399;-74
2023/11/24 14:12:09;;;;;;;3.63;1.53;;;;;;;;;;2607328;54;20515;-74
2023/11/24 14:14:35;;;;;;;7.40;4.63;;;;;;;;;;2606414;54;20542;-74
2023/11/24 14:17:01;;;;;;;3.87;1.83;;;;;;;;;;2606401;47;20450;-74
2023/11/24 14:19:30;;;;;;;2.90;1.70;;;;;;;;;;2606648;46;20418;-75
2023/11/24 14:21:56;;;;;;;2.70;1.37;;;;;;;;;;2606881;54;20383;-74
2023/11/24 14:24:22;;;;;;;2.93;1.67;;;;;;;;;;2606110;54;20404;-75
2023/11/24 14:26:48;;;;;;;3.30;1.63;;;;;;;;;;2608757;54;20959;-74
2023/11/24 14:29:16;;;;;;;12.03;3.20;;;;;;;;;;2608297;54;20391;-74
2023/11/24 14:31:42;;;;;;;4.43;2.33;;;;;;;;;;2611461;39;20844;-75
2023/11/24 14:34:08;;;;;;;6.90;1.53;;;;;;;;;;2611274;39;21269;-75
2023/11/24 14:36:36;;;;;;;3.33;1.80;;;;;;;;;;2611582;54;20973;-75
2023/11/24 14:39:03;;;;;;;7.13;2.27;;;;;;;;;;2611095;54;20408;-74
2023/11/24 14:41:30;;;;;;;4.97;2.50;;;;;;;;;;2611086;54;20435;-74